sensor_id;sensor_type;location;lat;lon;timestamp;temperature;humidity
1994;DHT22;998;49.906;10.908;2023-07-09T00:00:13;24.50;80.50
1994;DHT22;998;49.906;10.908;2023-07-09T00:02:41;24.60;80.20
1994;DHT22;998;49.906;10.908;2023-07-09T00:05:13;24.50;81.20
1994;DHT22;998;49.906;10.908;2023-07-09T00:07:42;24.50;81.50
1994;DHT22;998;49.906;10.908;2023-07-09T00:10:15;24.50;81.90
1994;DHT22;998;49.906;10.908;2023-07-09T00:12:42;24.50;81.70
1994;DHT22;998;49.906;10.908;2023-07-09T00:15:11;24.40;81.70
1994;DHT22;998;49.906;10.908;2023-07-09T00:17:39;24.30;82.40
1994;DHT22;998;49.906;10.908;2023-07-09T00:20:12;24.10;83.10
1994;DHT22;998;49.906;10.908;2023-07-09T00:22:40;24.20;83.20
1994;DHT22;998;49.906;10.908;2023-07-09T00:25:10;24.10;83.60
1994;DHT22;998;49.906;10.908;2023-07-09T00:27:42;24.20;83.80
1994;DHT22;998;49.906;10.908;2023-07-09T00:30:16;24.20;83.50
1994;DHT22;998;49.906;10.908;2023-07-09T00:32:44;24.20;83.70
1994;DHT22;998;49.906;10.908;2023-07-09T00:35:13;24.20;83.70
1994;DHT22;998;49.906;10.908;2023-07-09T00:37:41;24.10;84.10
1994;DHT22;998;49.906;10.908;2023-07-09T00:40:15;24.10;84.10
1994;DHT22;998;49.906;10.908;2023-07-09T00:42:45;24.10;84.40
1994;DHT22;998;49.906;10.908;2023-07-09T00:45:19;24.10;84.80
1994;DHT22;998;49.906;10.908;2023-07-09T00:47:54;23.90;85.50
1994;DHT22;998;49.906;10.908;2023-07-09T00:50:32;23.90;85.50
1994;DHT22;998;49.906;10.908;2023-07-09T00:53:03;23.90;85.50
1994;DHT22;998;49.906;10.908;2023-07-09T00:55:37;23.90;85.80
1994;DHT22;998;49.906;10.908;2023-07-09T00:58:08;23.80;85.60
1994;DHT22;998;49.906;10.908;2023-07-09T01:00:39;23.80;86.80
1994;DHT22;998;49.906;10.908;2023-07-09T01:03:17;23.80;86.60
1994;DHT22;998;49.906;10.908;2023-07-09T01:05:49;23.80;86.80
1994;DHT22;998;49.906;10.908;2023-07-09T01:08:19;23.80;86.90
1994;DHT22;998;49.906;10.908;2023-07-09T01:10:47;23.80;86.70
1994;DHT22;998;49.906;10.908;2023-07-09T01:13:15;23.70;86.60
1994;DHT22;998;49.906;10.908;2023-07-09T01:15:44;23.70;86.50
1994;DHT22;998;49.906;10.908;2023-07-09T01:18:12;23.60;86.80
1994;DHT22;998;49.906;10.908;2023-07-09T01:20:40;23.70;87.20
1994;DHT22;998;49.906;10.908;2023-07-09T01:23:10;23.70;87.30
1994;DHT22;998;49.906;10.908;2023-07-09T01:25:42;23.50;87.80
1994;DHT22;998;49.906;10.908;2023-07-09T01:28:11;23.50;88.00
1994;DHT22;998;49.906;10.908;2023-07-09T01:30:40;23.40;88.70
1994;DHT22;998;49.906;10.908;2023-07-09T01:33:08;23.40;89.00
1994;DHT22;998;49.906;10.908;2023-07-09T01:35:38;23.30;88.80
1994;DHT22;998;49.906;10.908;2023-07-09T01:38:07;23.40;88.90
1994;DHT22;998;49.906;10.908;2023-07-09T01:40:36;23.40;88.70
1994;DHT22;998;49.906;10.908;2023-07-09T01:43:04;23.40;88.70
1994;DHT22;998;49.906;10.908;2023-07-09T01:45:34;23.40;88.80
1994;DHT22;998;49.906;10.908;2023-07-09T01:48:02;23.30;89.00
1994;DHT22;998;49.906;10.908;2023-07-09T01:50:30;23.30;89.30
1994;DHT22;998;49.906;10.908;2023-07-09T01:52:57;23.30;89.30
1994;DHT22;998;49.906;10.908;2023-07-09T01:55:25;23.30;89.50
1994;DHT22;998;49.906;10.908;2023-07-09T01:57:55;23.20;89.90
1994;DHT22;998;49.906;10.908;2023-07-09T02:00:22;23.20;90.00
1994;DHT22;998;49.906;10.908;2023-07-09T02:02:49;23.10;90.00
1994;DHT22;998;49.906;10.908;2023-07-09T02:05:19;23.00;90.30
1994;DHT22;998;49.906;10.908;2023-07-09T02:07:47;22.90;90.70
1994;DHT22;998;49.906;10.908;2023-07-09T02:10:16;22.70;90.90
1994;DHT22;998;49.906;10.908;2023-07-09T02:12:44;22.70;91.10
1994;DHT22;998;49.906;10.908;2023-07-09T02:15:14;22.80;91.10
1994;DHT22;998;49.906;10.908;2023-07-09T02:17:42;22.80;91.00
1994;DHT22;998;49.906;10.908;2023-07-09T02:20:10;22.90;91.20
1994;DHT22;998;49.906;10.908;2023-07-09T02:22:38;22.70;91.40
1994;DHT22;998;49.906;10.908;2023-07-09T02:25:06;22.70;91.60
1994;DHT22;998;49.906;10.908;2023-07-09T02:27:35;22.70;91.30
1994;DHT22;998;49.906;10.908;2023-07-09T02:30:04;22.70;91.30
1994;DHT22;998;49.906;10.908;2023-07-09T02:32:33;22.60;91.40
1994;DHT22;998;49.906;10.908;2023-07-09T02:35:01;22.60;91.60
1994;DHT22;998;49.906;10.908;2023-07-09T02:37:28;22.60;91.80
1994;DHT22;998;49.906;10.908;2023-07-09T02:39:55;22.60;92.20
1994;DHT22;998;49.906;10.908;2023-07-09T02:42:23;22.60;92.30
1994;DHT22;998;49.906;10.908;2023-07-09T02:44:50;22.60;92.10
1994;DHT22;998;49.906;10.908;2023-07-09T02:47:18;22.50;92.50
1994;DHT22;998;49.906;10.908;2023-07-09T02:49:47;22.40;92.70
1994;DHT22;998;49.906;10.908;2023-07-09T02:52:15;22.40;92.90
1994;DHT22;998;49.906;10.908;2023-07-09T02:54:42;22.40;93.00
1994;DHT22;998;49.906;10.908;2023-07-09T02:57:10;22.50;93.00
1994;DHT22;998;49.906;10.908;2023-07-09T02:59:37;22.40;93.10
1994;DHT22;998;49.906;10.908;2023-07-09T03:02:05;22.30;93.30
1994;DHT22;998;49.906;10.908;2023-07-09T03:04:32;22.40;93.30
1994;DHT22;998;49.906;10.908;2023-07-09T03:07:01;22.40;93.40
1994;DHT22;998;49.906;10.908;2023-07-09T03:09:28;22.30;93.60
1994;DHT22;998;49.906;10.908;2023-07-09T03:11:56;22.20;94.00
1994;DHT22;998;49.906;10.908;2023-07-09T03:14:23;22.30;94.10
1994;DHT22;998;49.906;10.908;2023-07-09T03:16:51;22.30;94.20
1994;DHT22;998;49.906;10.908;2023-07-09T03:19:18;22.20;94.40
1994;DHT22;998;49.906;10.908;2023-07-09T03:21:46;22.10;94.80
1994;DHT22;998;49.906;10.908;2023-07-09T03:24:15;22.10;94.90
1994;DHT22;998;49.906;10.908;2023-07-09T03:26:44;22.00;95.20
1994;DHT22;998;49.906;10.908;2023-07-09T03:29:12;22.00;95.40
1994;DHT22;998;49.906;10.908;2023-07-09T03:31:40;22.10;95.50
1994;DHT22;998;49.906;10.908;2023-07-09T03:34:07;22.10;95.50
1994;DHT22;998;49.906;10.908;2023-07-09T03:36:35;22.10;95.70
1994;DHT22;998;49.906;10.908;2023-07-09T03:39:03;22.10;95.70
1994;DHT22;998;49.906;10.908;2023-07-09T03:41:32;22.10;95.80
1994;DHT22;998;49.906;10.908;2023-07-09T03:44:00;22.00;96.60
1994;DHT22;998;49.906;10.908;2023-07-09T03:46:27;22.00;96.40
1994;DHT22;998;49.906;10.908;2023-07-09T03:48:55;22.00;96.50
1994;DHT22;998;49.906;10.908;2023-07-09T03:51:22;21.90;96.60
1994;DHT22;998;49.906;10.908;2023-07-09T03:53:50;21.80;97.20
1994;DHT22;998;49.906;10.908;2023-07-09T03:56:17;21.90;97.30
1994;DHT22;998;49.906;10.908;2023-07-09T03:58:46;21.80;97.60
1994;DHT22;998;49.906;10.908;2023-07-09T04:01:13;21.80;97.90
1994;DHT22;998;49.906;10.908;2023-07-09T04:03:42;21.80;98.00
1994;DHT22;998;49.906;10.908;2023-07-09T04:06:09;21.80;98.30
1994;DHT22;998;49.906;10.908;2023-07-09T04:08:36;21.80;98.80
1994;DHT22;998;49.906;10.908;2023-07-09T04:11:04;21.70;98.70
1994;DHT22;998;49.906;10.908;2023-07-09T04:13:31;21.80;98.90
1994;DHT22;998;49.906;10.908;2023-07-09T04:16:00;21.70;99.10
1994;DHT22;998;49.906;10.908;2023-07-09T04:18:27;21.70;99.30
1994;DHT22;998;49.906;10.908;2023-07-09T04:20:55;21.60;99.70
1994;DHT22;998;49.906;10.908;2023-07-09T04:23:22;21.70;99.90
1994;DHT22;998;49.906;10.908;2023-07-09T04:25:50;21.70;99.90
1994;DHT22;998;49.906;10.908;2023-07-09T04:28:17;21.80;99.90
1994;DHT22;998;49.906;10.908;2023-07-09T04:30:48;21.70;99.90
1994;DHT22;998;49.906;10.908;2023-07-09T04:33:17;21.70;99.90
1994;DHT22;998;49.906;10.908;2023-07-09T04:35:45;21.70;99.90
1994;DHT22;998;49.906;10.908;2023-07-09T04:38:13;21.60;99.90
1994;DHT22;998;49.906;10.908;2023-07-09T04:40:41;21.70;99.90
1994;DHT22;998;49.906;10.908;2023-07-09T04:43:09;21.70;99.90
1994;DHT22;998;49.906;10.908;2023-07-09T04:45:36;21.80;99.90
1994;DHT22;998;49.906;10.908;2023-07-09T04:48:04;21.70;99.90
1994;DHT22;998;49.906;10.908;2023-07-09T04:50:32;21.80;99.90
1994;DHT22;998;49.906;10.908;2023-07-09T04:53:00;21.80;99.90
1994;DHT22;998;49.906;10.908;2023-07-09T04:55:28;21.90;99.90
1994;DHT22;998;49.906;10.908;2023-07-09T04:57:55;21.90;99.90
1994;DHT22;998;49.906;10.908;2023-07-09T05:00:23;21.90;99.90
1994;DHT22;998;49.906;10.908;2023-07-09T05:02:50;21.90;99.90
1994;DHT22;998;49.906;10.908;2023-07-09T05:05:18;21.90;99.90
1994;DHT22;998;49.906;10.908;2023-07-09T05:07:47;21.90;99.90
1994;DHT22;998;49.906;10.908;2023-07-09T05:10:15;22.00;99.90
1994;DHT22;998;49.906;10.908;2023-07-09T05:12:49;22.00;99.90
1994;DHT22;998;49.906;10.908;2023-07-09T05:15:17;22.00;99.90
1994;DHT22;998;49.906;10.908;2023-07-09T05:17:45;22.00;99.90
1994;DHT22;998;49.906;10.908;2023-07-09T05:20:14;22.00;99.90
1994;DHT22;998;49.906;10.908;2023-07-09T05:22:41;22.00;99.90
1994;DHT22;998;49.906;10.908;2023-07-09T05:25:10;22.00;99.90
1994;DHT22;998;49.906;10.908;2023-07-09T05:27:38;22.00;99.90
1994;DHT22;998;49.906;10.908;2023-07-09T05:30:06;22.10;99.90
1994;DHT22;998;49.906;10.908;2023-07-09T05:32:36;22.00;99.90
1994;DHT22;998;49.906;10.908;2023-07-09T05:35:04;22.00;99.90
1994;DHT22;998;49.906;10.908;2023-07-09T05:37:32;22.00;99.90
1994;DHT22;998;49.906;10.908;2023-07-09T05:39:59;22.00;99.90
1994;DHT22;998;49.906;10.908;2023-07-09T05:42:28;22.00;99.90
1994;DHT22;998;49.906;10.908;2023-07-09T05:44:55;22.10;99.90
1994;DHT22;998;49.906;10.908;2023-07-09T05:47:23;22.10;99.90
1994;DHT22;998;49.906;10.908;2023-07-09T05:49:50;22.00;99.90
1994;DHT22;998;49.906;10.908;2023-07-09T05:52:18;22.10;99.90
1994;DHT22;998;49.906;10.908;2023-07-09T05:54:48;22.10;99.90
1994;DHT22;998;49.906;10.908;2023-07-09T05:57:15;22.10;99.90
1994;DHT22;998;49.906;10.908;2023-07-09T05:59:44;22.10;99.90
1994;DHT22;998;49.906;10.908;2023-07-09T06:02:12;22.10;99.90
1994;DHT22;998;49.906;10.908;2023-07-09T06:04:40;22.20;99.90
1994;DHT22;998;49.906;10.908;2023-07-09T06:07:08;22.20;99.90
1994;DHT22;998;49.906;10.908;2023-07-09T06:09:36;22.20;99.90
1994;DHT22;998;49.906;10.908;2023-07-09T06:12:04;22.30;99.90
1994;DHT22;998;49.906;10.908;2023-07-09T06:14:32;22.40;99.90
1994;DHT22;998;49.906;10.908;2023-07-09T06:17:02;22.40;99.90
1994;DHT22;998;49.906;10.908;2023-07-09T06:19:30;22.40;99.90
1994;DHT22;998;49.906;10.908;2023-07-09T06:21:58;22.40;99.90
1994;DHT22;998;49.906;10.908;2023-07-09T06:24:25;22.50;99.90
1994;DHT22;998;49.906;10.908;2023-07-09T06:26:52;22.50;99.90
1994;DHT22;998;49.906;10.908;2023-07-09T06:29:20;22.50;99.90
1994;DHT22;998;49.906;10.908;2023-07-09T06:31:47;22.60;99.90
1994;DHT22;998;49.906;10.908;2023-07-09T06:34:16;22.50;99.90
1994;DHT22;998;49.906;10.908;2023-07-09T06:36:43;22.60;99.90
1994;DHT22;998;49.906;10.908;2023-07-09T06:39:11;22.60;99.90
1994;DHT22;998;49.906;10.908;2023-07-09T06:41:38;22.70;99.90
1994;DHT22;998;49.906;10.908;2023-07-09T06:44:06;22.80;99.90
1994;DHT22;998;49.906;10.908;2023-07-09T06:46:34;22.80;99.90
1994;DHT22;998;49.906;10.908;2023-07-09T06:49:02;22.80;99.90
1994;DHT22;998;49.906;10.908;2023-07-09T06:51:33;22.90;99.90
1994;DHT22;998;49.906;10.908;2023-07-09T06:54:00;23.00;99.90
1994;DHT22;998;49.906;10.908;2023-07-09T06:56:27;23.00;99.90
1994;DHT22;998;49.906;10.908;2023-07-09T06:58:55;23.10;99.90
1994;DHT22;998;49.906;10.908;2023-07-09T07:01:22;23.10;99.90
1994;DHT22;998;49.906;10.908;2023-07-09T07:03:50;23.20;99.90
1994;DHT22;998;49.906;10.908;2023-07-09T07:06:17;23.30;99.90
1994;DHT22;998;49.906;10.908;2023-07-09T07:08:46;23.30;99.90
1994;DHT22;998;49.906;10.908;2023-07-09T07:11:13;23.40;99.90
1994;DHT22;998;49.906;10.908;2023-07-09T07:13:43;23.50;99.90
1994;DHT22;998;49.906;10.908;2023-07-09T07:16:12;23.60;99.90
1994;DHT22;998;49.906;10.908;2023-07-09T07:18:40;23.60;99.90
1994;DHT22;998;49.906;10.908;2023-07-09T07:21:08;23.60;99.90
1994;DHT22;998;49.906;10.908;2023-07-09T07:23:35;23.70;99.90
1994;DHT22;998;49.906;10.908;2023-07-09T07:26:04;23.70;99.90
1994;DHT22;998;49.906;10.908;2023-07-09T07:28:33;23.80;99.90
1994;DHT22;998;49.906;10.908;2023-07-09T07:31:03;23.80;99.90
1994;DHT22;998;49.906;10.908;2023-07-09T07:33:31;23.90;99.90
1994;DHT22;998;49.906;10.908;2023-07-09T07:35:58;23.90;99.90
1994;DHT22;998;49.906;10.908;2023-07-09T07:38:26;23.90;99.90
1994;DHT22;998;49.906;10.908;2023-07-09T07:40:53;24.00;99.90
1994;DHT22;998;49.906;10.908;2023-07-09T07:43:22;24.10;99.90
1994;DHT22;998;49.906;10.908;2023-07-09T07:45:49;24.10;99.90
1994;DHT22;998;49.906;10.908;2023-07-09T07:48:17;24.20;99.90
1994;DHT22;998;49.906;10.908;2023-07-09T07:50:45;24.20;99.90
1994;DHT22;998;49.906;10.908;2023-07-09T07:53:14;24.30;99.90
1994;DHT22;998;49.906;10.908;2023-07-09T07:55:41;24.30;99.90
1994;DHT22;998;49.906;10.908;2023-07-09T07:58:10;24.40;99.90
1994;DHT22;998;49.906;10.908;2023-07-09T08:00:40;24.50;99.90
1994;DHT22;998;49.906;10.908;2023-07-09T08:03:07;24.50;99.90
1994;DHT22;998;49.906;10.908;2023-07-09T08:05:34;24.50;99.90
1994;DHT22;998;49.906;10.908;2023-07-09T08:08:01;24.50;99.90
1994;DHT22;998;49.906;10.908;2023-07-09T08:10:28;24.60;99.90
1994;DHT22;998;49.906;10.908;2023-07-09T08:12:56;24.70;99.90
1994;DHT22;998;49.906;10.908;2023-07-09T08:15:24;24.60;99.90
1994;DHT22;998;49.906;10.908;2023-07-09T08:17:53;24.70;99.90
1994;DHT22;998;49.906;10.908;2023-07-09T08:20:20;24.80;99.90
1994;DHT22;998;49.906;10.908;2023-07-09T08:22:48;24.90;99.90
1994;DHT22;998;49.906;10.908;2023-07-09T08:25:15;25.00;99.90
1994;DHT22;998;49.906;10.908;2023-07-09T08:27:43;25.10;99.90
1994;DHT22;998;49.906;10.908;2023-07-09T08:30:11;25.10;99.90
1994;DHT22;998;49.906;10.908;2023-07-09T08:32:38;25.20;99.90
1994;DHT22;998;49.906;10.908;2023-07-09T08:35:08;25.20;99.60
1994;DHT22;998;49.906;10.908;2023-07-09T08:37:37;25.30;99.30
1994;DHT22;998;49.906;10.908;2023-07-09T08:40:08;25.40;98.90
1994;DHT22;998;49.906;10.908;2023-07-09T08:42:40;25.60;98.60
1994;DHT22;998;49.906;10.908;2023-07-09T08:45:19;25.60;97.80
1994;DHT22;998;49.906;10.908;2023-07-09T08:47:57;25.60;97.80
1994;DHT22;998;49.906;10.908;2023-07-09T08:50:32;25.80;97.70
1994;DHT22;998;49.906;10.908;2023-07-09T08:53:02;25.80;97.80
1994;DHT22;998;49.906;10.908;2023-07-09T08:55:29;25.90;97.80
1994;DHT22;998;49.906;10.908;2023-07-09T08:58:11;26.00;97.70
1994;DHT22;998;49.906;10.908;2023-07-09T09:00:44;26.00;97.20
1994;DHT22;998;49.906;10.908;2023-07-09T09:03:19;26.00;98.00
1994;DHT22;998;49.906;10.908;2023-07-09T09:05:52;26.10;97.80
1994;DHT22;998;49.906;10.908;2023-07-09T09:08:29;26.20;97.40
1994;DHT22;998;49.906;10.908;2023-07-09T09:11:03;26.30;97.30
1994;DHT22;998;49.906;10.908;2023-07-09T09:13:36;26.30;97.00
1994;DHT22;998;49.906;10.908;2023-07-09T09:16:12;26.40;96.90
1994;DHT22;998;49.906;10.908;2023-07-09T09:18:43;26.40;96.50
1994;DHT22;998;49.906;10.908;2023-07-09T09:21:17;26.40;96.60
1994;DHT22;998;49.906;10.908;2023-07-09T09:23:50;26.50;97.40
1994;DHT22;998;49.906;10.908;2023-07-09T09:26:22;26.60;96.30
1994;DHT22;998;49.906;10.908;2023-07-09T09:28:51;26.60;96.60
1994;DHT22;998;49.906;10.908;2023-07-09T09:31:19;26.70;95.90
1994;DHT22;998;49.906;10.908;2023-07-09T09:33:49;26.70;96.00
1994;DHT22;998;49.906;10.908;2023-07-09T09:36:21;26.80;95.70
1994;DHT22;998;49.906;10.908;2023-07-09T09:38:48;26.70;95.60
1994;DHT22;998;49.906;10.908;2023-07-09T09:41:18;26.80;95.50
1994;DHT22;998;49.906;10.908;2023-07-09T09:43:48;27.00;95.80
1994;DHT22;998;49.906;10.908;2023-07-09T09:46:21;27.00;95.70
1994;DHT22;998;49.906;10.908;2023-07-09T09:48:49;27.00;95.10
1994;DHT22;998;49.906;10.908;2023-07-09T09:51:19;27.20;92.30
1994;DHT22;998;49.906;10.908;2023-07-09T09:53:49;27.20;93.60
1994;DHT22;998;49.906;10.908;2023-07-09T09:56:20;27.30;92.20
1994;DHT22;998;49.906;10.908;2023-07-09T09:58:52;27.40;92.00
1994;DHT22;998;49.906;10.908;2023-07-09T10:01:25;27.30;91.80
1994;DHT22;998;49.906;10.908;2023-07-09T10:03:56;27.40;92.00
1994;DHT22;998;49.906;10.908;2023-07-09T10:06:33;27.50;90.80
1994;DHT22;998;49.906;10.908;2023-07-09T10:09:05;27.50;90.70
1994;DHT22;998;49.906;10.908;2023-07-09T10:11:45;27.10;90.20
1994;DHT22;998;49.906;10.908;2023-07-09T10:14:26;27.50;89.40
1994;DHT22;998;49.906;10.908;2023-07-09T10:17:00;27.50;88.60
1994;DHT22;998;49.906;10.908;2023-07-09T10:19:40;27.40;88.70
1994;DHT22;998;49.906;10.908;2023-07-09T10:22:22;27.50;88.50
1994;DHT22;998;49.906;10.908;2023-07-09T10:24:56;27.60;88.60
1994;DHT22;998;49.906;10.908;2023-07-09T10:27:34;27.90;90.00
1994;DHT22;998;49.906;10.908;2023-07-09T10:30:15;27.90;89.20
1994;DHT22;998;49.906;10.908;2023-07-09T10:32:55;27.90;87.20
1994;DHT22;998;49.906;10.908;2023-07-09T10:35:32;27.70;87.40
1994;DHT22;998;49.906;10.908;2023-07-09T10:38:11;27.80;86.60
1994;DHT22;998;49.906;10.908;2023-07-09T10:40:46;28.00;86.70
1994;DHT22;998;49.906;10.908;2023-07-09T10:43:16;28.10;85.70
1994;DHT22;998;49.906;10.908;2023-07-09T10:45:47;28.20;84.10
1994;DHT22;998;49.906;10.908;2023-07-09T10:48:17;28.40;82.20
1994;DHT22;998;49.906;10.908;2023-07-09T10:50:48;28.50;82.40
1994;DHT22;998;49.906;10.908;2023-07-09T10:53:28;28.40;81.40
1994;DHT22;998;49.906;10.908;2023-07-09T10:56:00;28.50;81.90
1994;DHT22;998;49.906;10.908;2023-07-09T10:58:35;28.80;81.90
1994;DHT22;998;49.906;10.908;2023-07-09T11:01:05;29.10;80.20
1994;DHT22;998;49.906;10.908;2023-07-09T11:03:43;29.10;78.80
1994;DHT22;998;49.906;10.908;2023-07-09T11:06:18;29.10;79.10
1994;DHT22;998;49.906;10.908;2023-07-09T11:08:49;29.10;78.80
1994;DHT22;998;49.906;10.908;2023-07-09T11:11:25;29.00;78.50
1994;DHT22;998;49.906;10.908;2023-07-09T11:13:59;29.10;77.80
1994;DHT22;998;49.906;10.908;2023-07-09T11:16:31;29.20;76.20
1994;DHT22;998;49.906;10.908;2023-07-09T11:19:01;29.30;76.00
1994;DHT22;998;49.906;10.908;2023-07-09T11:21:29;29.50;74.40
1994;DHT22;998;49.906;10.908;2023-07-09T11:23:59;29.50;75.60
1994;DHT22;998;49.906;10.908;2023-07-09T11:26:29;30.00;74.50
1994;DHT22;998;49.906;10.908;2023-07-09T11:29:13;30.00;73.60
1994;DHT22;998;49.906;10.908;2023-07-09T11:31:42;30.00;74.00
1994;DHT22;998;49.906;10.908;2023-07-09T11:34:17;30.20;73.90
1994;DHT22;998;49.906;10.908;2023-07-09T11:36:50;30.50;71.40
1994;DHT22;998;49.906;10.908;2023-07-09T11:39:26;30.40;70.20
1994;DHT22;998;49.906;10.908;2023-07-09T11:41:55;30.50;70.00
1994;DHT22;998;49.906;10.908;2023-07-09T11:44:23;30.40;69.70
1994;DHT22;998;49.906;10.908;2023-07-09T11:47:01;30.40;70.30
1994;DHT22;998;49.906;10.908;2023-07-09T11:49:34;30.60;71.10
1994;DHT22;998;49.906;10.908;2023-07-09T11:52:08;30.90;69.40
1994;DHT22;998;49.906;10.908;2023-07-09T11:54:38;31.00;68.70
1994;DHT22;998;49.906;10.908;2023-07-09T11:57:11;31.00;68.90
1994;DHT22;998;49.906;10.908;2023-07-09T11:59:40;31.10;68.20
1994;DHT22;998;49.906;10.908;2023-07-09T12:02:15;31.30;66.90
1994;DHT22;998;49.906;10.908;2023-07-09T12:04:43;31.40;66.80
1994;DHT22;998;49.906;10.908;2023-07-09T12:07:14;31.40;67.10
1994;DHT22;998;49.906;10.908;2023-07-09T12:09:49;31.60;67.00
1994;DHT22;998;49.906;10.908;2023-07-09T12:12:19;32.00;64.90
1994;DHT22;998;49.906;10.908;2023-07-09T12:14:47;31.80;65.50
1994;DHT22;998;49.906;10.908;2023-07-09T12:17:14;31.60;65.00
1994;DHT22;998;49.906;10.908;2023-07-09T12:19:41;31.60;62.70
1994;DHT22;998;49.906;10.908;2023-07-09T12:22:16;31.70;62.40
1994;DHT22;998;49.906;10.908;2023-07-09T12:24:47;31.80;61.50
1994;DHT22;998;49.906;10.908;2023-07-09T12:27:22;32.00;59.80
1994;DHT22;998;49.906;10.908;2023-07-09T12:29:51;32.10;59.00
1994;DHT22;998;49.906;10.908;2023-07-09T12:32:20;32.40;59.70
1994;DHT22;998;49.906;10.908;2023-07-09T12:34:50;32.40;60.10
1994;DHT22;998;49.906;10.908;2023-07-09T12:37:20;32.70;58.20
1994;DHT22;998;49.906;10.908;2023-07-09T12:39:50;32.90;58.00
1994;DHT22;998;49.906;10.908;2023-07-09T12:42:24;33.30;56.50
1994;DHT22;998;49.906;10.908;2023-07-09T12:44:54;33.50;55.20
1994;DHT22;998;49.906;10.908;2023-07-09T12:47:24;33.70;55.00
1994;DHT22;998;49.906;10.908;2023-07-09T12:50:01;34.00;55.90
1994;DHT22;998;49.906;10.908;2023-07-09T12:52:28;34.00;55.40
1994;DHT22;998;49.906;10.908;2023-07-09T12:54:58;34.30;55.60
1994;DHT22;998;49.906;10.908;2023-07-09T12:57:26;34.60;54.80
1994;DHT22;998;49.906;10.908;2023-07-09T12:59:55;34.70;54.90
1994;DHT22;998;49.906;10.908;2023-07-09T13:02:24;34.80;53.90
1994;DHT22;998;49.906;10.908;2023-07-09T13:05:00;35.20;53.80
1994;DHT22;998;49.906;10.908;2023-07-09T13:07:31;35.10;53.70
1994;DHT22;998;49.906;10.908;2023-07-09T13:10:11;35.20;53.20
1994;DHT22;998;49.906;10.908;2023-07-09T13:12:41;34.70;52.20
1994;DHT22;998;49.906;10.908;2023-07-09T13:15:29;34.80;53.20
1994;DHT22;998;49.906;10.908;2023-07-09T13:17:58;35.00;53.30
1994;DHT22;998;49.906;10.908;2023-07-09T13:20:27;35.30;52.70
1994;DHT22;998;49.906;10.908;2023-07-09T13:22:55;35.50;53.20
1994;DHT22;998;49.906;10.908;2023-07-09T13:25:24;35.50;53.10
1994;DHT22;998;49.906;10.908;2023-07-09T13:27:51;35.40;52.60
1994;DHT22;998;49.906;10.908;2023-07-09T13:30:19;35.00;53.10
1994;DHT22;998;49.906;10.908;2023-07-09T13:32:48;34.80;52.30
1994;DHT22;998;49.906;10.908;2023-07-09T13:35:17;35.00;53.10
1994;DHT22;998;49.906;10.908;2023-07-09T13:37:45;35.30;52.50
1994;DHT22;998;49.906;10.908;2023-07-09T13:40:14;35.60;51.60
1994;DHT22;998;49.906;10.908;2023-07-09T13:42:44;35.80;51.40
1994;DHT22;998;49.906;10.908;2023-07-09T13:45:20;35.80;50.80
1994;DHT22;998;49.906;10.908;2023-07-09T13:47:48;35.60;50.10
1994;DHT22;998;49.906;10.908;2023-07-09T13:50:16;35.60;50.40
1994;DHT22;998;49.906;10.908;2023-07-09T13:52:44;35.70;50.80
1994;DHT22;998;49.906;10.908;2023-07-09T13:55:17;35.80;50.30
1994;DHT22;998;49.906;10.908;2023-07-09T13:57:47;35.90;50.50
1994;DHT22;998;49.906;10.908;2023-07-09T14:00:15;36.20;50.50
1994;DHT22;998;49.906;10.908;2023-07-09T14:02:43;36.20;49.70
1994;DHT22;998;49.906;10.908;2023-07-09T14:05:12;36.10;50.80
1994;DHT22;998;49.906;10.908;2023-07-09T14:07:41;36.20;50.80
1994;DHT22;998;49.906;10.908;2023-07-09T14:10:12;36.00;50.20
1994;DHT22;998;49.906;10.908;2023-07-09T14:12:42;36.00;50.00
1994;DHT22;998;49.906;10.908;2023-07-09T14:15:15;36.00;49.50
1994;DHT22;998;49.906;10.908;2023-07-09T14:17:43;36.00;49.10
1994;DHT22;998;49.906;10.908;2023-07-09T14:20:15;36.00;50.30
1994;DHT22;998;49.906;10.908;2023-07-09T14:22:43;36.00;49.80
1994;DHT22;998;49.906;10.908;2023-07-09T14:25:17;35.90;49.80
1994;DHT22;998;49.906;10.908;2023-07-09T14:27:45;35.90;49.40
1994;DHT22;998;49.906;10.908;2023-07-09T14:30:16;35.90;49.30
1994;DHT22;998;49.906;10.908;2023-07-09T14:32:45;36.00;49.50
1994;DHT22;998;49.906;10.908;2023-07-09T14:35:15;36.20;50.00
1994;DHT22;998;49.906;10.908;2023-07-09T14:37:43;36.20;48.50
1994;DHT22;998;49.906;10.908;2023-07-09T14:40:12;36.30;49.10
1994;DHT22;998;49.906;10.908;2023-07-09T14:42:40;36.30;48.60
1994;DHT22;998;49.906;10.908;2023-07-09T14:45:19;36.30;49.00
1994;DHT22;998;49.906;10.908;2023-07-09T14:47:46;36.10;48.40
1994;DHT22;998;49.906;10.908;2023-07-09T14:50:14;36.40;48.30
1994;DHT22;998;49.906;10.908;2023-07-09T14:52:43;36.40;48.20
1994;DHT22;998;49.906;10.908;2023-07-09T14:55:14;36.40;48.20
1994;DHT22;998;49.906;10.908;2023-07-09T14:57:42;36.30;48.80
1994;DHT22;998;49.906;10.908;2023-07-09T15:00:14;36.40;48.00
1994;DHT22;998;49.906;10.908;2023-07-09T15:02:43;36.40;48.50
1994;DHT22;998;49.906;10.908;2023-07-09T15:05:16;36.50;48.70
1994;DHT22;998;49.906;10.908;2023-07-09T15:07:44;36.30;48.70
1994;DHT22;998;49.906;10.908;2023-07-09T15:10:16;36.00;48.80
1994;DHT22;998;49.906;10.908;2023-07-09T15:12:44;36.00;48.70
1994;DHT22;998;49.906;10.908;2023-07-09T15:15:16;35.90;48.60
1994;DHT22;998;49.906;10.908;2023-07-09T15:17:46;36.00;48.50
1994;DHT22;998;49.906;10.908;2023-07-09T15:20:15;35.80;48.80
1994;DHT22;998;49.906;10.908;2023-07-09T15:22:43;35.60;48.10
1994;DHT22;998;49.906;10.908;2023-07-09T15:25:16;35.60;49.10
1994;DHT22;998;49.906;10.908;2023-07-09T15:27:46;35.50;49.90
1994;DHT22;998;49.906;10.908;2023-07-09T15:30:15;35.50;49.30
1994;DHT22;998;49.906;10.908;2023-07-09T15:32:46;35.50;49.20
1994;DHT22;998;49.906;10.908;2023-07-09T15:35:15;35.50;49.20
1994;DHT22;998;49.906;10.908;2023-07-09T15:37:43;35.40;49.30
1994;DHT22;998;49.906;10.908;2023-07-09T15:40:18;35.30;49.10
1994;DHT22;998;49.906;10.908;2023-07-09T15:42:47;35.30;49.40
1994;DHT22;998;49.906;10.908;2023-07-09T15:45:15;35.20;49.20
1994;DHT22;998;49.906;10.908;2023-07-09T15:47:46;35.30;49.50
1994;DHT22;998;49.906;10.908;2023-07-09T15:50:15;35.40;51.00
1994;DHT22;998;49.906;10.908;2023-07-09T15:52:44;35.50;49.40
1994;DHT22;998;49.906;10.908;2023-07-09T15:55:16;35.50;49.30
1994;DHT22;998;49.906;10.908;2023-07-09T15:57:45;35.40;49.60
1994;DHT22;998;49.906;10.908;2023-07-09T16:00:19;35.50;49.30
1994;DHT22;998;49.906;10.908;2023-07-09T16:02:48;35.50;49.30
1994;DHT22;998;49.906;10.908;2023-07-09T16:05:19;35.50;49.30
1994;DHT22;998;49.906;10.908;2023-07-09T16:07:49;35.50;49.00
1994;DHT22;998;49.906;10.908;2023-07-09T16:10:17;35.40;48.30
1994;DHT22;998;49.906;10.908;2023-07-09T16:12:45;35.30;48.30
1994;DHT22;998;49.906;10.908;2023-07-09T16:15:18;35.30;48.50
1994;DHT22;998;49.906;10.908;2023-07-09T16:17:48;35.20;48.70